Time;durP1;ratioP1;P1;durP2;ratioP2;P2;SDS_P1;SDS_P2;PMS_P1;PMS_P2;Temp;Humidity;BMP_temperature;BMP_pressure;BME280_temperature;BME280_humidity;BME280_pressure;Samples;Min_cycle;Max_cycle;Signal;HPM_P1;HPM_P2
2022/07/07 00:01:53;;;;;;;9.63;6.57;;;18.90;99.90;;;;;;5071611;28;20285;-66
2022/07/07 00:04:19;;;;;;;7.27;6.67;;;18.90;99.90;;;;;;5071152;28;20214;-66
2022/07/07 00:06:44;;;;;;;7.30;6.67;;;18.90;99.90;;;;;;5070426;28;20186;-66
2022/07/07 00:09:10;;;;;;;7.80;6.30;;;18.80;99.90;;;;;;5071378;28;20174;-66
2022/07/07 00:11:35;;;;;;;7.47;6.93;;;18.80;99.90;;;;;;5071601;28;20233;-66
2022/07/07 00:14:01;;;;;;;7.90;6.13;;;18.80;99.90;;;;;;5070999;28;20194;-66
2022/07/07 00:16:27;;;;;;;7.50;6.90;;;18.80;99.90;;;;;;5071708;28;20198;-66
2022/07/07 00:18:53;;;;;;;6.53;6.03;;;18.80;99.90;;;;;;5071487;28;20599;-66
2022/07/07 00:21:19;;;;;;;6.33;5.70;;;18.80;99.90;;;;;;5071456;28;20206;-66
2022/07/07 00:23:45;;;;;;;6.80;6.23;;;18.70;99.90;;;;;;5071038;28;20285;-67
2022/07/07 00:26:10;;;;;;;6.73;6.13;;;18.70;99.90;;;;;;5071257;28;20293;-66
2022/07/07 00:28:36;;;;;;;6.37;5.97;;;18.70;99.90;;;;;;5071558;28;20239;-66
2022/07/07 00:31:02;;;;;;;9.47;5.83;;;18.60;99.90;;;;;;5071191;28;20204;-66
2022/07/07 00:33:27;;;;;;;8.23;6.00;;;18.60;99.90;;;;;;5070706;28;20201;-66
2022/07/07 00:35:53;;;;;;;6.87;6.47;;;18.60;99.90;;;;;;5071130;28;20263;-67
2022/07/07 00:38:19;;;;;;;9.87;7.57;;;18.60;99.90;;;;;;5071450;28;20173;-67
2022/07/07 00:40:52;;;;;;;7.77;7.00;;;18.60;99.90;;;;;;5071216;28;20284;-66
2022/07/07 00:43:18;;;;;;;6.93;6.23;;;18.60;99.90;;;;;;5071442;28;20529;-66
2022/07/07 00:45:51;;;;;;;6.73;6.03;;;18.60;99.90;;;;;;5071049;28;20166;-66
2022/07/07 00:48:18;;;;;;;6.20;5.70;;;18.70;99.90;;;;;;5071407;28;20583;-66
2022/07/07 00:50:46;;;;;;;7.53;5.90;;;18.70;99.90;;;;;;5071114;28;20575;-66
2022/07/07 00:53:12;;;;;;;7.70;6.47;;;18.70;99.90;;;;;;5068473;28;20280;-66
2022/07/07 00:55:39;;;;;;;7.97;6.17;;;18.70;99.90;;;;;;5071080;28;20260;-66
2022/07/07 00:58:05;;;;;;;7.63;6.90;;;18.70;99.90;;;;;;5071164;28;20213;-67
2022/07/07 01:00:31;;;;;;;8.57;7.40;;;18.70;99.90;;;;;;5071195;28;20205;-67
2022/07/07 01:02:57;;;;;;;8.40;7.77;;;18.60;99.90;;;;;;5070756;28;20205;-67
2022/07/07 01:05:23;;;;;;;8.63;7.63;;;18.60;99.90;;;;;;5070767;28;20568;-66
2022/07/07 01:07:50;;;;;;;9.77;7.67;;;18.60;99.90;;;;;;5070697;28;20190;-67
2022/07/07 01:10:16;;;;;;;8.33;7.63;;;18.60;99.90;;;;;;5071323;28;20170;-67
2022/07/07 01:12:41;;;;;;;9.67;7.80;;;18.60;99.90;;;;;;5070764;28;20755;-67
2022/07/07 01:15:10;;;;;;;7.97;7.47;;;18.60;99.90;;;;;;5070590;28;20196;-66
2022/07/07 01:17:37;;;;;;;8.47;7.67;;;18.50;99.90;;;;;;5070957;28;20174;-67
2022/07/07 01:20:05;;;;;;;7.93;7.40;;;18.50;99.90;;;;;;5070586;28;20535;-67
2022/07/07 01:22:36;;;;;;;7.50;6.90;;;18.50;99.90;;;;;;5071065;28;20444;-66
2022/07/07 01:25:03;;;;;;;6.90;6.40;;;18.50;99.90;;;;;;5070469;28;20186;-66
2022/07/07 01:27:28;;;;;;;6.23;5.73;;;18.60;99.90;;;;;;5070658;28;20175;-67
2022/07/07 01:29:56;;;;;;;8.17;6.23;;;18.60;99.90;;;;;;5069599;28;20190;-67
2022/07/07 01:32:23;;;;;;;6.60;5.97;;;18.60;99.90;;;;;;5070498;28;20598;-66
2022/07/07 01:34:49;;;;;;;9.57;6.43;;;18.60;99.90;;;;;;5069059;28;20607;-67
2022/07/07 01:37:16;;;;;;;6.27;5.87;;;18.60;99.90;;;;;;5070872;28;20170;-66
2022/07/07 01:39:42;;;;;;;7.50;6.77;;;18.60;99.90;;;;;;5070669;28;20174;-66
2022/07/07 01:42:09;;;;;;;6.43;5.83;;;18.60;99.90;;;;;;5070541;28;20241;-66
2022/07/07 01:44:38;;;;;;;6.27;5.70;;;18.60;99.90;;;;;;5071670;28;20182;-67
2022/07/07 01:47:05;;;;;;;6.53;5.87;;;18.50;99.90;;;;;;5074187;28;20565;-66
2022/07/07 01:49:32;;;;;;;5.90;5.50;;;18.50;99.90;;;;;;5073887;28;20639;-66
2022/07/07 01:51:58;;;;;;;6.67;5.93;;;18.50;99.90;;;;;;5074044;28;20206;-66
2022/07/07 01:54:25;;;;;;;7.07;6.47;;;18.60;99.90;;;;;;5073763;28;20533;-67
2022/07/07 01:56:51;;;;;;;8.37;6.70;;;18.60;99.90;;;;;;5074124;28;20210;-67
2022/07/07 01:59:17;;;;;;;8.03;7.30;;;18.60;99.90;;;;;;5074046;28;20213;-66
2022/07/07 02:01:43;;;;;;;6.97;6.47;;;18.50;99.90;;;;;;5072610;28;20572;-66
2022/07/07 02:04:09;;;;;;;8.27;6.67;;;18.60;99.90;;;;;;5073405;28;20170;-66
2022/07/07 02:06:35;;;;;;;7.03;6.47;;;18.60;99.90;;;;;;5074021;28;20185;-66
2022/07/07 02:09:01;;;;;;;7.00;5.83;;;18.60;99.90;;;;;;5073683;28;20181;-67
2022/07/07 02:11:27;;;;;;;6.20;5.63;;;18.60;99.90;;;;;;5073882;28;20183;-66
2022/07/07 02:13:53;;;;;;;6.67;6.17;;;18.50;99.90;;;;;;5073095;28;20190;-66
2022/07/07 02:16:21;;;;;;;6.37;5.83;;;18.50;99.90;;;;;;5073772;28;20185;-67
2022/07/07 02:18:48;;;;;;;6.97;6.23;;;18.50;99.90;;;;;;5072352;28;20543;-66
2022/07/07 02:21:15;;;;;;;5.80;5.33;;;18.50;99.90;;;;;;5072277;28;20232;-67
2022/07/07 02:23:43;;;;;;;8.40;6.50;;;18.50;99.90;;;;;;5073169;28;20222;-66
2022/07/07 02:26:10;;;;;;;7.03;5.97;;;18.50;99.90;;;;;;5073482;28;20182;-66
2022/07/07 02:28:35;;;;;;;6.70;6.20;;;18.50;99.90;;;;;;5073318;28;20166;-67
2022/07/07 02:31:01;;;;;;;7.13;6.53;;;18.50;99.90;;;;;;5075083;28;20193;-72
2022/07/07 02:33:27;;;;;;;8.00;6.53;;;18.50;99.90;;;;;;5074615;28;20209;-71
2022/07/07 02:35:54;;;;;;;8.40;6.43;;;18.50;99.90;;;;;;5074976;28;20170;-69
2022/07/07 02:38:21;;;;;;;7.70;6.63;;;18.50;99.90;;;;;;5075428;28;20185;-71
2022/07/07 02:40:47;;;;;;;6.60;6.00;;;18.50;99.90;;;;;;5074961;28;20186;-71
2022/07/07 02:43:13;;;;;;;8.23;6.10;;;18.40;99.90;;;;;;5075095;28;20206;-71
2022/07/07 02:45:40;;;;;;;7.03;6.33;;;18.40;99.90;;;;;;5074784;28;20170;-70
2022/07/07 02:48:09;;;;;;;8.00;7.30;;;18.50;99.90;;;;;;5074735;28;20233;-69
2022/07/07 02:50:35;;;;;;;7.40;6.57;;;18.50;99.90;;;;;;5075173;28;20182;-70
2022/07/07 02:53:02;;;;;;;8.03;6.60;;;18.50;99.90;;;;;;5074681;28;20213;-72
2022/07/07 02:55:28;;;;;;;8.17;7.17;;;18.50;99.90;;;;;;5074424;28;20608;-73
2022/07/07 02:57:54;;;;;;;7.50;6.90;;;18.60;99.90;;;;;;5074120;28;20209;-69
2022/07/07 03:00:19;;;;;;;7.60;6.43;;;18.50;99.90;;;;;;5074998;28;20196;-72
2022/07/07 03:02:45;;;;;;;7.10;6.50;;;18.60;99.90;;;;;;5074437;28;20675;-72
2022/07/07 03:05:11;;;;;;;7.87;6.90;;;18.60;99.90;;;;;;5074075;28;20257;-72
2022/07/07 03:07:37;;;;;;;7.50;6.87;;;18.60;99.90;;;;;;5074563;28;20576;-69
2022/07/07 03:10:05;;;;;;;6.40;5.80;;;18.50;99.90;;;;;;5074031;28;20186;-70
2022/07/07 03:12:30;;;;;;;6.47;5.70;;;18.50;99.90;;;;;;5074186;28;20281;-69
2022/07/07 03:14:56;;;;;;;6.90;6.30;;;18.50;99.90;;;;;;5073951;28;20240;-68
2022/07/07 03:17:22;;;;;;;7.73;6.43;;;18.40;99.90;;;;;;5074544;28;20625;-69
2022/07/07 03:19:47;;;;;;;6.50;5.97;;;18.40;99.90;;;;;;5073990;28;20185;-70
2022/07/07 03:22:13;;;;;;;7.10;6.50;;;18.50;99.90;;;;;;5074435;28;20210;-71
2022/07/07 03:24:38;;;;;;;7.90;7.10;;;18.40;99.90;;;;;;5073811;28;20178;-70
2022/07/07 03:27:04;;;;;;;6.80;6.17;;;18.40;99.90;;;;;;5074498;28;20239;-70
2022/07/07 03:29:30;;;;;;;6.07;5.67;;;18.40;99.90;;;;;;5074047;28;20174;-69
2022/07/07 03:31:55;;;;;;;6.50;5.90;;;18.40;99.90;;;;;;5072880;28;20216;-68
2022/07/07 03:34:21;;;;;;;6.97;6.43;;;18.30;99.90;;;;;;5074244;28;20197;-72
2022/07/07 03:36:47;;;;;;;6.63;6.03;;;18.40;99.90;;;;;;5074408;28;20178;-69
2022/07/07 03:39:12;;;;;;;7.47;6.90;;;18.30;99.90;;;;;;5074228;28;20277;-70
2022/07/07 03:41:38;;;;;;;7.07;6.37;;;18.40;99.90;;;;;;5074126;28;20306;-70
2022/07/07 03:44:04;;;;;;;7.00;6.50;;;18.30;99.90;;;;;;5073483;28;20189;-69
2022/07/07 03:46:29;;;;;;;7.57;7.00;;;18.40;99.90;;;;;;5074170;28;20219;-72
2022/07/07 03:48:56;;;;;;;7.93;7.43;;;18.40;99.90;;;;;;5073837;28;20174;-68
2022/07/07 03:51:21;;;;;;;6.27;5.80;;;18.40;99.90;;;;;;5072859;28;20177;-71
2022/07/07 03:53:47;;;;;;;6.23;5.80;;;18.40;99.90;;;;;;5071765;28;20210;-66
2022/07/07 03:56:13;;;;;;;6.07;5.57;;;18.40;99.90;;;;;;5072067;28;20185;-66
2022/07/07 03:58:38;;;;;;;8.13;6.50;;;18.40;99.90;;;;;;5071619;28;20178;-65
2022/07/07 04:01:04;;;;;;;7.57;7.07;;;18.30;99.90;;;;;;5071626;28;20667;-65
2022/07/07 04:03:30;;;;;;;7.10;6.50;;;18.20;99.90;;;;;;5071190;28;20276;-65
2022/07/07 04:05:56;;;;;;;7.00;6.50;;;18.00;99.90;;;;;;5071368;28;20696;-66
2022/07/07 04:08:21;;;;;;;6.80;6.20;;;17.70;99.90;;;;;;5071399;28;20170;-66
2022/07/07 04:10:47;;;;;;;7.73;7.03;;;17.60;99.90;;;;;;5071486;28;20580;-66
2022/07/07 04:13:13;;;;;;;7.60;6.97;;;17.50;99.90;;;;;;5071631;28;20197;-65
2022/07/07 04:15:38;;;;;;;7.37;6.77;;;17.40;99.90;;;;;;5071078;28;20178;-65
2022/07/07 04:18:04;;;;;;;7.47;6.40;;;17.40;99.90;;;;;;5071482;28;20178;-66
2022/07/07 04:20:30;;;;;;;8.97;6.63;;;17.40;99.90;;;;;;5071497;28;20271;-65
2022/07/07 04:22:57;;;;;;;6.93;6.43;;;17.40;99.90;;;;;;5071435;28;20194;-66
2022/07/07 04:25:22;;;;;;;7.77;7.00;;;17.30;99.90;;;;;;5070929;28;20185;-65
2022/07/07 04:27:49;;;;;;;7.30;6.70;;;17.40;99.90;;;;;;5071474;28;20170;-66
2022/07/07 04:30:15;;;;;;;7.70;6.87;;;17.40;99.90;;;;;;5071392;28;20174;-65
2022/07/07 04:32:41;;;;;;;7.10;6.43;;;17.50;99.90;;;;;;5086419;22;20593;-65
2022/07/07 04:35:07;;;;;;;6.93;6.37;;;17.50;99.90;;;;;;5050438;28;20183;-64
2022/07/07 04:37:32;;;;;;;6.77;6.13;;;17.60;99.90;;;;;;5051787;28;20254;-64
2022/07/07 04:39:58;;;;;;;7.03;6.53;;;17.60;99.90;;;;;;5034939;28;20258;-64
2022/07/07 04:42:24;;;;;;;6.90;6.40;;;17.70;99.90;;;;;;5031558;28;20285;-66
2022/07/07 04:44:50;;;;;;;6.53;6.03;;;17.80;99.90;;;;;;5045162;28;20179;-66
2022/07/07 04:47:16;;;;;;;6.67;5.97;;;17.80;99.90;;;;;;5051432;28;20242;-66
2022/07/07 04:49:42;;;;;;;6.60;6.10;;;17.80;99.90;;;;;;5051246;28;20175;-66
2022/07/07 04:52:07;;;;;;;5.70;5.20;;;17.90;99.90;;;;;;5051156;28;20704;-65
2022/07/07 04:54:33;;;;;;;6.70;6.07;;;18.00;99.90;;;;;;5050768;28;20262;-65
2022/07/07 04:56:58;;;;;;;6.57;5.97;;;18.00;99.90;;;;;;5051282;28;20175;-66
2022/07/07 04:59:24;;;;;;;6.50;6.00;;;18.00;99.90;;;;;;5050809;28;20178;-66
2022/07/07 05:01:50;;;;;;;6.17;5.67;;;18.00;99.90;;;;;;5051233;28;20205;-65
2022/07/07 05:04:15;;;;;;;6.27;5.77;;;18.00;99.90;;;;;;5050831;28;20175;-65
2022/07/07 05:06:41;;;;;;;5.87;5.47;;;18.10;99.90;;;;;;5051519;28;20213;-65
2022/07/07 05:09:07;;;;;;;5.90;5.40;;;18.10;99.90;;;;;;5051548;28;20190;-66
2022/07/07 05:11:32;;;;;;;6.10;5.60;;;18.10;99.90;;;;;;5051291;28;20646;-66
2022/07/07 05:13:58;;;;;;;6.17;5.67;;;18.20;99.90;;;;;;5050710;28;20194;-65
2022/07/07 05:16:24;;;;;;;7.17;6.50;;;18.00;99.90;;;;;;5051308;28;20217;-65
2022/07/07 05:18:49;;;;;;;6.70;6.20;;;17.90;99.90;;;;;;5051326;28;20246;-66
2022/07/07 05:21:15;;;;;;;8.60;6.33;;;17.70;99.90;;;;;;5055254;28;20730;-66
2022/07/07 05:23:40;;;;;;;6.63;6.03;;;17.60;99.90;;;;;;5054724;28;20191;-65
2022/07/07 05:26:06;;;;;;;7.23;6.63;;;17.50;99.90;;;;;;5054875;28;20163;-65
2022/07/07 05:28:32;;;;;;;8.07;7.13;;;17.50;99.90;;;;;;5054793;28;20174;-65
2022/07/07 05:30:57;;;;;;;8.90;6.30;;;17.40;99.90;;;;;;5055231;28;20635;-65
2022/07/07 05:33:23;;;;;;;6.70;6.13;;;17.50;99.90;;;;;;5054404;28;20214;-62
2022/07/07 05:35:48;;;;;;;7.40;6.87;;;17.50;99.90;;;;;;5054982;28;20186;-65
2022/07/07 05:38:14;;;;;;;8.10;7.60;;;17.50;99.90;;;;;;5054594;28;20209;-65
2022/07/07 05:40:40;;;;;;;7.90;7.40;;;17.50;99.90;;;;;;5054780;28;20186;-65
2022/07/07 05:43:05;;;;;;;8.03;7.33;;;17.50;99.90;;;;;;5054420;28;20570;-66
2022/07/07 05:45:31;;;;;;;7.27;6.77;;;17.50;99.90;;;;;;5054959;28;20250;-66
2022/07/07 05:47:57;;;;;;;7.90;7.20;;;17.40;99.90;;;;;;5054323;28;20186;-65
2022/07/07 05:50:22;;;;;;;10.33;9.30;;;17.20;99.90;;;;;;5054345;28;20158;-65
2022/07/07 05:52:48;;;;;;;9.30;8.10;;;17.00;99.90;;;;;;5053141;28;20282;-64
2022/07/07 05:55:14;;;;;;;11.43;7.70;;;16.80;99.90;;;;;;5052087;28;20178;-65
2022/07/07 05:57:39;;;;;;;8.97;7.30;;;16.80;99.90;;;;;;5054482;28;20210;-64
2022/07/07 06:00:06;;;;;;;9.23;8.57;;;16.70;99.90;;;;;;5053493;28;20175;-65
2022/07/07 06:02:32;;;;;;;7.00;6.50;;;16.60;99.90;;;;;;5053812;28;20289;-65
2022/07/07 06:04:57;;;;;;;7.50;6.90;;;16.50;99.90;;;;;;5054194;28;20286;-66
2022/07/07 06:07:23;;;;;;;7.23;6.73;;;16.50;99.90;;;;;;5054048;28;20258;-67
2022/07/07 06:09:48;;;;;;;7.33;6.73;;;16.40;99.90;;;;;;5053875;28;20170;-65
2022/07/07 06:12:14;;;;;;;7.30;6.60;;;16.40;99.90;;;;;;5053965;28;20692;-65
2022/07/07 06:14:40;;;;;;;7.17;6.73;;;16.30;99.90;;;;;;5053346;28;20199;-66
2022/07/07 06:17:05;;;;;;;7.50;6.97;;;16.30;99.90;;;;;;5053544;28;20261;-66
2022/07/07 06:19:31;;;;;;;8.67;7.87;;;16.40;99.90;;;;;;5053934;28;20276;-65
2022/07/07 06:21:56;;;;;;;7.73;6.33;;;16.40;99.90;;;;;;5053387;28;20294;-66
2022/07/07 06:24:22;;;;;;;7.70;7.20;;;16.40;99.90;;;;;;5053418;28;20171;-66
2022/07/07 06:26:48;;;;;;;7.00;6.50;;;16.40;99.90;;;;;;5053710;28;20540;-67
2022/07/07 06:29:14;;;;;;;7.63;7.03;;;16.50;99.90;;;;;;5053621;28;20171;-67
2022/07/07 06:31:40;;;;;;;8.13;7.53;;;16.50;99.90;;;;;;5053011;28;20183;-67
2022/07/07 06:34:05;;;;;;;7.90;7.40;;;16.60;99.90;;;;;;5053252;28;20225;-67
2022/07/07 06:36:31;;;;;;;8.97;8.27;;;16.80;99.90;;;;;;5053978;28;20236;-66
2022/07/07 06:38:57;;;;;;;8.60;7.70;;;16.80;99.90;;;;;;5054141;28;20179;-66
2022/07/07 06:41:26;;;;;;;8.00;7.50;;;16.80;99.90;;;;;;5054402;28;20593;-65
2022/07/07 06:43:51;;;;;;;8.30;7.77;;;16.80;99.90;;;;;;5053636;28;20664;-66
2022/07/07 06:46:17;;;;;;;8.10;7.47;;;16.80;99.90;;;;;;5053785;28;20203;-66
2022/07/07 06:48:43;;;;;;;7.50;7.00;;;17.00;99.90;;;;;;5054259;28;20182;-66
2022/07/07 06:51:08;;;;;;;7.30;6.60;;;17.20;99.90;;;;;;5053778;28;20262;-67
2022/07/07 06:53:34;;;;;;;7.30;6.80;;;17.30;99.90;;;;;;5052871;28;20191;-67
2022/07/07 06:55:59;;;;;;;7.73;7.23;;;17.40;99.90;;;;;;5051969;28;20190;-65
2022/07/07 06:58:25;;;;;;;6.30;5.90;;;17.30;99.90;;;;;;5052669;28;20178;-65
2022/07/07 07:00:51;;;;;;;9.57;8.97;;;17.20;99.90;;;;;;5052822;28;20203;-67
2022/07/07 07:03:16;;;;;;;8.70;8.20;;;17.20;99.90;;;;;;5053897;28;20574;-65
2022/07/07 07:05:42;;;;;;;7.10;6.70;;;17.10;99.90;;;;;;5053033;28;20202;-67
2022/07/07 07:08:07;;;;;;;9.70;8.97;;;17.10;99.90;;;;;;5053254;28;20510;-66
2022/07/07 07:10:33;;;;;;;7.07;6.60;;;17.30;99.90;;;;;;5052836;28;20190;-66
2022/07/07 07:12:59;;;;;;;8.07;7.47;;;17.50;99.90;;;;;;5052671;28;20210;-66
2022/07/07 07:15:24;;;;;;;5.40;5.10;;;17.70;99.90;;;;;;5052650;28;20205;-66
2022/07/07 07:17:50;;;;;;;5.20;4.90;;;18.10;99.90;;;;;;5052885;28;20167;-65
2022/07/07 07:20:16;;;;;;;5.10;4.70;;;18.60;99.90;;;;;;5052159;28;20185;-65
2022/07/07 07:22:41;;;;;;;5.57;5.20;;;18.90;99.90;;;;;;5052236;28;20209;-67
2022/07/07 07:25:08;;;;;;;5.20;4.80;;;19.20;99.90;;;;;;5052196;28;20171;-68
2022/07/07 07:27:34;;;;;;;6.67;4.83;;;19.20;99.90;;;;;;5052070;28;20285;-66
2022/07/07 07:30:00;;;;;;;5.70;5.30;;;19.60;99.90;;;;;;5052570;28;20182;-66
2022/07/07 07:32:26;;;;;;;5.93;5.17;;;20.00;99.90;;;;;;5053462;28;20206;-65
2022/07/07 07:34:52;;;;;;;5.10;4.90;;;20.10;99.90;;;;;;5050327;28;20182;-67
2022/07/07 07:37:18;;;;;;;5.03;4.73;;;20.00;99.90;;;;;;5052655;28;20171;-66
2022/07/07 07:39:43;;;;;;;4.73;4.53;;;19.80;99.90;;;;;;5053721;28;20175;-65
2022/07/07 07:42:09;;;;;;;6.73;6.30;;;19.70;99.90;;;;;;5051751;28;20210;-66
2022/07/07 07:47:18;;;;;;;5.57;5.20;;;19.90;99.90;;;;;;5052509;28;20174;-64
2022/07/07 07:49:44;;;;;;;5.33;5.00;;;20.10;99.90;;;;;;5051789;28;20170;-66
2022/07/07 07:52:10;;;;;;;6.30;5.90;;;20.50;99.90;;;;;;5051740;28;20242;-66
2022/07/07 07:54:36;;;;;;;6.63;6.27;;;20.70;99.90;;;;;;5051787;28;20221;-65
2022/07/07 07:57:02;;;;;;;4.70;4.43;;;20.70;99.90;;;;;;5052216;28;20682;-66
2022/07/07 07:59:28;;;;;;;5.83;5.53;;;20.30;99.90;;;;;;5051566;28;20266;-66
2022/07/07 08:01:54;;;;;;;4.53;4.13;;;19.60;99.90;;;;;;5051705;28;20305;-67
2022/07/07 08:04:19;;;;;;;4.23;4.03;;;18.70;99.90;;;;;;5051162;28;20535;-66
2022/07/07 08:06:45;;;;;;;4.40;4.20;;;18.40;99.90;;;;;;5051704;28;20228;-65
2022/07/07 08:09:10;;;;;;;4.77;4.50;;;18.30;99.90;;;;;;5050539;28;20593;-66
2022/07/07 08:11:36;;;;;;;4.93;4.63;;;18.30;99.90;;;;;;5051658;28;20183;-66
2022/07/07 08:14:02;;;;;;;5.20;4.73;;;18.20;99.90;;;;;;5050815;28;20206;-65
2022/07/07 08:16:28;;;;;;;5.03;4.73;;;18.30;99.90;;;;;;5051588;28;20186;-65
2022/07/07 08:18:53;;;;;;;5.03;4.80;;;18.40;99.90;;;;;;5062071;28;20541;-66
2022/07/07 08:21:19;;;;;;;5.80;5.40;;;18.50;99.90;;;;;;5071647;28;20621;-68
2022/07/07 08:23:46;;;;;;;5.63;5.10;;;18.50;99.90;;;;;;5052661;28;20679;-66
2022/07/07 08:26:12;;;;;;;5.33;4.93;;;18.60;99.90;;;;;;5051432;28;20179;-67
2022/07/07 08:28:38;;;;;;;4.93;4.50;;;18.80;99.90;;;;;;5051338;28;20179;-67
2022/07/07 08:31:06;;;;;;;4.50;4.20;;;18.70;99.90;;;;;;5050454;28;20254;-67
2022/07/07 08:33:32;;;;;;;7.13;4.60;;;18.80;99.90;;;;;;5050534;28;20214;-67
2022/07/07 08:35:58;;;;;;;5.37;4.97;;;19.10;99.90;;;;;;5051144;28;20170;-66
2022/07/07 08:38:24;;;;;;;5.40;5.03;;;19.60;99.90;;;;;;5051121;28;20183;-66
2022/07/07 08:40:50;;;;;;;5.63;5.17;;;20.30;99.90;;;;;;5049728;28;20248;-66
2022/07/07 08:43:15;;;;;;;5.83;5.23;;;20.90;99.90;;;;;;5051091;28;20205;-67
2022/07/07 08:45:41;;;;;;;6.00;5.60;;;21.30;99.90;;;;;;5051035;28;20175;-66
2022/07/07 08:48:07;;;;;;;7.27;6.30;;;21.40;99.90;;;;;;5051060;28;20375;-67
2022/07/07 08:50:34;;;;;;;6.57;6.00;;;21.10;99.90;;;;;;5050870;28;20183;-64
2022/07/07 08:53:01;;;;;;;5.30;4.83;;;20.60;99.90;;;;;;5051425;28;20278;-65
2022/07/07 08:55:30;;;;;;;10.53;9.67;;;19.70;99.90;;;;;;5054887;28;20182;-66
2022/07/07 08:57:56;;;;;;;8.60;4.90;;;18.70;99.90;;;;;;5055053;28;20253;-67
2022/07/07 09:00:22;;;;;;;8.37;5.50;;;17.80;99.90;;;;;;5055120;28;20186;-66
2022/07/07 09:02:49;;;;;;;10.67;5.70;;;17.30;99.90;;;;;;5055509;28;20195;-66
2022/07/07 09:05:15;;;;;;;5.67;5.23;;;17.30;99.90;;;;;;5055137;28;20178;-67
2022/07/07 09:07:49;;;;;;;6.70;6.10;;;17.30;99.90;;;;;;5055745;28;20174;-67
2022/07/07 09:10:33;;;;;;;6.13;5.60;;;17.50;99.90;;;;;;5054919;28;20167;-65
2022/07/07 09:13:00;;;;;;;6.13;5.73;;;17.70;99.90;;;;;;5039039;28;20285;-66
2022/07/07 09:15:26;;;;;;;5.27;4.90;;;18.00;99.90;;;;;;5054332;28;20171;-65
2022/07/07 09:17:52;;;;;;;5.20;4.80;;;18.60;99.90;;;;;;5054846;28;20236;-67
2022/07/07 09:20:18;;;;;;;4.80;4.50;;;19.50;99.90;;;;;;5055168;28;20174;-66
2022/07/07 09:22:57;;;;;;;4.50;4.27;;;19.90;99.90;;;;;;5054685;28;20676;-66
2022/07/07 09:25:25;;;;;;;5.03;4.63;;;19.90;99.90;;;;;;5054038;28;20193;-66
2022/07/07 09:27:56;;;;;;;5.23;4.90;;;19.70;99.90;;;;;;5054554;28;20361;-67
2022/07/07 09:30:37;;;;;;;5.97;5.47;;;19.60;99.90;;;;;;5054596;28;20190;-66
2022/07/07 09:33:11;;;;;;;5.67;4.80;;;19.30;99.90;;;;;;5054283;28;20214;-64
2022/07/07 09:38:23;;;;;;;4.60;4.30;;;18.90;99.90;;;;;;5054381;28;20222;-64
2022/07/07 09:41:08;;;;;;;5.47;4.33;;;18.80;99.90;;;;;;5054118;28;20656;-64
2022/07/07 09:43:35;;;;;;;5.47;4.97;;;18.80;99.90;;;;;;5053973;28;20190;-64
2022/07/07 09:46:10;;;;;;;4.47;4.17;;;18.80;99.90;;;;;;5053904;28;20175;-65
2022/07/07 09:48:37;;;;;;;5.27;4.87;;;19.30;99.90;;;;;;5054092;28;20224;-65
2022/07/07 09:51:16;;;;;;;5.33;4.97;;;20.00;99.90;;;;;;5054326;28;20234;-66
2022/07/07 09:53:57;;;;;;;4.50;4.20;;;20.70;99.90;;;;;;5053521;28;20252;-66
2022/07/07 09:56:31;;;;;;;8.18;7.78;;;21.00;99.90;;;;;;5054070;28;20178;-65
2022/07/07 09:58:57;;;;;;;5.63;5.17;;;21.30;99.90;;;;;;5054006;28;20597;-65
2022/07/07 10:01:29;;;;;;;5.33;5.10;;;21.50;99.90;;;;;;5053979;28;20257;-66
2022/07/07 10:03:57;;;;;;;6.43;5.97;;;21.60;99.90;;;;;;5053082;28;20686;-65
2022/07/07 10:06:25;;;;;;;6.07;5.73;;;21.50;99.90;;;;;;5052934;28;20175;-65
2022/07/07 10:08:56;;;;;;;5.70;5.33;;;21.50;99.90;;;;;;5053631;28;20644;-64
2022/07/07 10:11:31;;;;;;;4.20;3.92;;;21.70;99.90;;;;;;5053967;28;20174;-65
2022/07/07 10:14:07;;;;;;;4.20;3.90;;;22.00;99.90;;;;;;5053450;28;20198;-64
2022/07/07 10:16:33;;;;;;;4.18;3.85;;;22.20;99.90;;;;;;5053636;28;20174;-65
2022/07/07 10:18:59;;;;;;;3.95;3.70;;;22.30;99.90;;;;;;5053334;28;20258;-64
2022/07/07 10:21:24;;;;;;;4.82;3.60;;;22.60;99.90;;;;;;5053612;28;20198;-65
2022/07/07 10:23:50;;;;;;;3.35;3.10;;;22.70;99.90;;;;;;5052836;28;20571;-65
2022/07/07 10:26:16;;;;;;;4.38;4.03;;;22.80;99.90;;;;;;5053458;28;20186;-66
2022/07/07 10:28:56;;;;;;;4.15;3.80;;;23.00;99.90;;;;;;5053763;28;20182;-64
2022/07/07 10:31:24;;;;;;;4.20;3.53;;;22.80;99.90;;;;;;5069992;28;20185;-65
2022/07/07 10:33:59;;;;;;;4.63;4.33;;;22.40;99.90;;;;;;5055876;28;20292;-65
2022/07/07 10:36:26;;;;;;;4.03;3.80;;;22.10;99.90;;;;;;5053307;28;20181;-64
2022/07/07 10:38:57;;;;;;;3.77;3.57;;;22.10;99.90;;;;;;5053079;28;20182;-64
2022/07/07 10:41:25;;;;;;;4.40;4.00;;;22.10;99.90;;;;;;5053374;28;20214;-65
2022/07/07 10:44:02;;;;;;;3.45;3.33;;;22.30;99.90;;;;;;5052425;28;20609;-65
2022/07/07 10:46:28;;;;;;;4.30;4.00;;;22.30;99.90;;;;;;5053196;28;20162;-64
2022/07/07 10:49:07;;;;;;;4.22;3.90;;;22.30;99.90;;;;;;5052790;28;20686;-65
2022/07/07 10:51:54;;;;;;;4.75;4.30;;;22.20;99.90;;;;;;5033146;28;20191;-64
2022/07/07 10:54:41;;;;;;;3.92;3.63;;;22.30;99.90;;;;;;5032812;28;20520;-64
2022/07/07 10:57:21;;;;;;;3.97;3.67;;;22.70;99.90;;;;;;5032978;28;20191;-64
2022/07/07 11:00:06;;;;;;;3.70;3.42;;;22.90;99.90;;;;;;5032995;28;20203;-65
2022/07/07 11:02:33;;;;;;;3.90;3.58;;;22.90;99.90;;;;;;5042485;28;20201;-65
2022/07/07 11:05:01;;;;;;;4.00;3.70;;;22.80;99.90;;;;;;5052252;28;20175;-65
2022/07/07 11:07:28;;;;;;;4.80;4.50;;;22.30;99.90;;;;;;5052657;28;20189;-64
2022/07/07 11:10:03;;;;;;;6.57;5.60;;;21.50;99.90;;;;;;5040723;28;20698;-65
2022/07/07 11:12:40;;;;;;;5.40;5.00;;;20.30;99.90;;;;;;5052722;28;20189;-65
2022/07/07 11:15:15;;;;;;;5.80;5.37;;;19.30;99.90;;;;;;5052302;28;20178;-66
2022/07/07 11:17:42;;;;;;;5.90;5.40;;;18.60;99.90;;;;;;5052355;28;20185;-64
2022/07/07 11:20:08;;;;;;;4.93;4.63;;;18.20;99.90;;;;;;5052375;28;20258;-65
2022/07/07 11:22:44;;;;;;;5.27;4.97;;;18.00;99.90;;;;;;5051988;28;20249;-65
2022/07/07 11:25:15;;;;;;;5.57;5.13;;;17.90;99.90;;;;;;5032135;28;20179;-65
2022/07/07 11:27:41;;;;;;;5.53;5.13;;;18.00;99.90;;;;;;5034113;28;20171;-64
2022/07/07 11:30:08;;;;;;;5.10;4.70;;;18.10;99.90;;;;;;5052209;28;20174;-65
2022/07/07 11:32:41;;;;;;;4.97;4.60;;;18.40;99.90;;;;;;5051900;28;20222;-65
2022/07/07 11:35:09;;;;;;;4.73;4.43;;;18.90;99.90;;;;;;5051881;28;20179;-65
2022/07/07 11:37:39;;;;;;;5.23;4.83;;;19.60;99.90;;;;;;5052093;28;20185;-65
2022/07/07 11:40:25;;;;;;;6.20;5.27;;;20.30;99.90;;;;;;5052068;28;20183;-65
2022/07/07 11:42:51;;;;;;;5.60;5.27;;;21.10;99.90;;;;;;5051622;28;20245;-65
2022/07/07 11:45:21;;;;;;;4.93;4.53;;;21.60;99.90;;;;;;5051699;28;20170;-65
2022/07/07 11:47:48;;;;;;;4.60;4.38;;;21.90;99.90;;;;;;5051794;28;20175;-65
2022/07/07 11:50:14;;;;;;;7.35;6.93;;;21.90;99.90;;;;;;5051863;28;20514;-65
2022/07/07 11:53:06;;;;;;;5.17;4.87;;;21.50;99.90;;;;;;5051427;28;20195;-64
2022/07/07 11:55:32;;;;;;;4.47;4.23;;;21.40;99.90;;;;;;5050636;28;20183;-65
2022/07/07 11:58:03;;;;;;;6.60;6.00;;;21.30;99.90;;;;;;5051277;28;20275;-66
2022/07/07 12:00:34;;;;;;;5.40;5.00;;;21.10;99.90;;;;;;5051726;28;20198;-66
2022/07/07 12:03:01;;;;;;;5.07;4.63;;;20.80;99.90;;;;;;5051337;28;20203;-65
2022/07/07 12:05:43;;;;;;;6.53;6.03;;;20.50;99.90;;;;;;5051577;28;20173;-65
2022/07/07 12:08:11;;;;;;;5.70;5.30;;;20.40;99.90;;;;;;5051432;28;20233;-66
2022/07/07 12:10:40;;;;;;;6.10;5.67;;;20.60;99.90;;;;;;5051706;28;20529;-64
2022/07/07 12:13:13;;;;;;;6.20;5.90;;;20.80;99.90;;;;;;5050878;28;20248;-65
2022/07/07 12:15:41;;;;;;;5.28;4.97;;;21.40;99.90;;;;;;5051440;28;20261;-65
2022/07/07 12:18:09;;;;;;;4.83;4.53;;;21.50;99.90;;;;;;5051361;28;20198;-65
2022/07/07 12:20:36;;;;;;;4.90;4.70;;;21.90;99.90;;;;;;5051192;28;20175;-65
2022/07/07 12:23:04;;;;;;;7.38;4.63;;;22.00;99.90;;;;;;5051519;28;20535;-65
2022/07/07 12:25:33;;;;;;;4.17;3.83;;;22.10;99.90;;;;;;5050882;28;20209;-65
2022/07/07 12:28:07;;;;;;;4.73;4.03;;;21.90;99.90;;;;;;5050802;28;20188;-65
2022/07/07 12:30:35;;;;;;;5.50;5.10;;;21.40;99.90;;;;;;5051047;28;20206;-65
2022/07/07 12:33:01;;;;;;;5.07;4.60;;;21.30;99.90;;;;;;5051089;28;20205;-65
2022/07/07 12:35:39;;;;;;;5.03;4.70;;;21.50;99.90;;;;;;5050772;28;20198;-65
2022/07/07 12:38:06;;;;;;;7.30;6.60;;;21.10;99.90;;;;;;5050963;28;20536;-65
2022/07/07 12:40:36;;;;;;;4.63;4.23;;;20.80;99.90;;;;;;5051144;28;20171;-65
2022/07/07 12:43:07;;;;;;;5.37;4.87;;;20.10;99.90;;;;;;5050927;28;20274;-66
2022/07/07 12:45:33;;;;;;;5.30;5.00;;;19.90;99.90;;;;;;5050556;28;20167;-64
2022/07/07 12:47:59;;;;;;;5.60;5.20;;;20.00;99.90;;;;;;5050787;28;20175;-66
2022/07/07 12:50:26;;;;;;;5.17;4.60;;;20.30;99.90;;;;;;5051329;28;20175;-66
2022/07/07 12:53:07;;;;;;;4.87;4.53;;;20.50;99.90;;;;;;5050782;28;20381;-65